createdAt,value
2022-12-25T00:00:42.739Z,100.00
2022-12-25T00:03:10.803Z,100.00
2022-12-25T00:05:39.271Z,100.00
2022-12-25T00:08:07.318Z,100.00
2022-12-25T00:10:37.510Z,100.00
2022-12-25T00:13:10.304Z,100.00
2022-12-25T00:15:39.746Z,100.00
2022-12-25T00:18:07.992Z,100.00
2022-12-25T00:20:35.288Z,100.00
2022-12-25T00:23:02.669Z,100.00
2022-12-25T00:25:30.076Z,100.00
2022-12-25T00:27:57.812Z,100.00
2022-12-25T00:30:25.124Z,100.00
2022-12-25T00:32:52.457Z,100.00
2022-12-25T00:35:19.862Z,100.00
2022-12-25T00:37:47.168Z,100.00
2022-12-25T00:40:28.845Z,100.00
2022-12-25T00:43:06.937Z,100.00
2022-12-25T00:45:35.045Z,100.00
2022-12-25T00:48:02.906Z,100.00
2022-12-25T00:50:30.463Z,100.00
2022-12-25T00:52:58.179Z,100.00
2022-12-25T00:55:25.578Z,100.00
2022-12-25T00:57:53.294Z,100.00
2022-12-25T01:00:21.085Z,100.00
2022-12-25T01:02:48.459Z,100.00
2022-12-25T01:05:15.887Z,100.00
2022-12-25T01:07:43.181Z,100.00
2022-12-25T01:10:23.225Z,100.00
2022-12-25T01:12:51.577Z,100.00
2022-12-25T01:15:19.414Z,100.00
2022-12-25T01:17:46.731Z,100.00
2022-12-25T01:20:15.502Z,100.00
2022-12-25T01:22:43.808Z,100.00
2022-12-25T01:25:12.771Z,100.00
2022-12-25T01:27:41.174Z,100.00
2022-12-25T01:30:08.841Z,100.00
2022-12-25T01:32:36.713Z,100.00
2022-12-25T01:35:04.249Z,100.00
2022-12-25T01:37:32.537Z,100.00
2022-12-25T01:40:00.453Z,100.00
2022-12-25T01:42:28.211Z,100.00
2022-12-25T01:44:55.447Z,100.00
2022-12-25T01:47:22.783Z,100.00
2022-12-25T01:49:51.275Z,100.00
2022-12-25T01:52:24.160Z,100.00
2022-12-25T01:55:00.511Z,100.00
2022-12-25T01:57:30.439Z,100.00
2022-12-25T01:59:59.373Z,100.00
2022-12-25T02:02:27.887Z,100.00
2022-12-25T02:05:05.291Z,100.00
2022-12-25T02:07:34.924Z,100.00
2022-12-25T02:10:02.366Z,100.00
2022-12-25T02:12:32.015Z,100.00
2022-12-25T02:15:05.386Z,100.00
2022-12-25T02:17:40.283Z,100.00
2022-12-25T02:20:13.738Z,100.00
2022-12-25T02:22:59.464Z,100.00
2022-12-25T02:25:32.884Z,100.00
2022-12-25T02:28:20.604Z,100.00
2022-12-25T02:31:17.851Z,100.00
2022-12-25T02:34:03.492Z,100.00
2022-12-25T02:36:50.659Z,100.00
2022-12-25T02:39:43.335Z,100.00
2022-12-25T02:42:13.845Z,100.00
2022-12-25T02:45:02.411Z,100.00
2022-12-25T02:47:50.366Z,100.00
2022-12-25T02:50:36.904Z,100.00
2022-12-25T02:53:24.123Z,100.00
2022-12-25T02:56:11.345Z,100.00
2022-12-25T02:58:58.295Z,100.00
2022-12-25T03:01:46.934Z,100.00
2022-12-25T03:04:34.631Z,100.00
2022-12-25T03:07:05.111Z,100.00
2022-12-25T03:10:01.305Z,100.00
2022-12-25T03:12:29.337Z,100.00
2022-12-25T03:15:15.168Z,100.00
2022-12-25T03:17:43.500Z,100.00
2022-12-25T03:20:29.682Z,100.00
2022-12-25T03:23:16.395Z,100.00
2022-12-25T03:26:03.989Z,100.00
2022-12-25T03:28:31.698Z,100.00
2022-12-25T03:31:14.323Z,100.00
2022-12-25T03:34:08.024Z,100.00
2022-12-25T03:36:42.360Z,100.00
2022-12-25T03:39:35.556Z,100.00
2022-12-25T03:42:24.017Z,100.00
2022-12-25T03:44:54.439Z,100.00
2022-12-25T03:47:46.289Z,100.00
2022-12-25T03:50:44.942Z,100.00
2022-12-25T03:53:35.335Z,100.00
2022-12-25T03:56:22.604Z,100.00
2022-12-25T03:59:10.081Z,100.00
2022-12-25T04:01:56.200Z,100.00
2022-12-25T04:04:42.291Z,100.00
2022-12-25T04:07:28.555Z,100.00
2022-12-25T04:10:14.459Z,100.00
2022-12-25T04:13:00.984Z,100.00
2022-12-25T04:15:47.827Z,100.00
2022-12-25T04:18:33.760Z,100.00
2022-12-25T04:21:19.832Z,100.00
2022-12-25T04:24:06.275Z,100.00
2022-12-25T04:26:52.000Z,100.00
2022-12-25T04:29:38.646Z,100.00
2022-12-25T04:32:24.470Z,100.00
2022-12-25T04:35:11.327Z,100.00
2022-12-25T04:37:38.872Z,100.00
2022-12-25T04:40:08.151Z,100.00
2022-12-25T04:42:35.926Z,100.00
2022-12-25T04:45:03.786Z,100.00
2022-12-25T04:47:32.323Z,100.00
2022-12-25T04:49:59.618Z,100.00
2022-12-25T04:52:27.120Z,100.00
2022-12-25T04:54:54.476Z,100.00
2022-12-25T04:57:21.860Z,100.00
2022-12-25T04:59:49.136Z,100.00
2022-12-25T05:02:16.613Z,100.00
2022-12-25T05:04:44.356Z,100.00
2022-12-25T05:07:11.691Z,100.00
2022-12-25T05:09:42.564Z,100.00
2022-12-25T05:12:10.953Z,100.00
2022-12-25T05:14:39.990Z,100.00
2022-12-25T05:17:08.206Z,100.00
2022-12-25T05:19:35.908Z,100.00
2022-12-25T05:22:03.313Z,100.00
2022-12-25T05:24:31.121Z,100.00
2022-12-25T05:26:58.840Z,100.00
2022-12-25T05:29:26.210Z,100.00
2022-12-25T05:31:53.562Z,100.00
2022-12-25T05:34:21.351Z,100.00
2022-12-25T05:36:49.102Z,100.00
2022-12-25T05:39:16.547Z,100.00
2022-12-25T05:41:44.044Z,100.00
2022-12-25T05:44:12.849Z,100.00
2022-12-25T05:46:41.074Z,100.00
2022-12-25T05:49:08.907Z,100.00
2022-12-25T05:51:36.758Z,100.00
2022-12-25T05:54:04.277Z,100.00
2022-12-25T05:56:31.689Z,100.00
2022-12-25T05:58:59.651Z,100.00
2022-12-25T06:01:28.548Z,100.00
2022-12-25T06:03:56.535Z,100.00
2022-12-25T06:06:24.048Z,100.00
2022-12-25T06:08:53.408Z,100.00
2022-12-25T06:11:21.422Z,100.00
2022-12-25T06:13:52.662Z,100.00
2022-12-25T06:16:20.379Z,100.00
2022-12-25T06:18:49.018Z,100.00
2022-12-25T06:21:16.627Z,100.00
2022-12-25T06:23:44.362Z,100.00
2022-12-25T06:26:13.807Z,100.00
2022-12-25T06:28:41.670Z,100.00
2022-12-25T06:31:13.985Z,100.00
2022-12-25T06:33:42.078Z,100.00
2022-12-25T06:36:20.322Z,100.00
2022-12-25T06:38:47.960Z,100.00
2022-12-25T06:41:17.814Z,100.00
2022-12-25T06:43:52.837Z,100.00
2022-12-25T06:46:21.444Z,100.00
2022-12-25T06:48:49.987Z,100.00
2022-12-25T06:51:18.396Z,100.00
2022-12-25T06:53:45.942Z,100.00
2022-12-25T06:56:15.782Z,100.00
2022-12-25T06:58:44.168Z,100.00
2022-12-25T07:01:15.964Z,100.00
2022-12-25T07:03:44.141Z,100.00
2022-12-25T07:06:11.562Z,100.00
2022-12-25T07:08:39.431Z,100.00
2022-12-25T07:11:07.479Z,100.00
2022-12-25T07:13:35.188Z,100.00
2022-12-25T07:16:03.689Z,100.00
2022-12-25T07:18:31.694Z,100.00
2022-12-25T07:21:00.312Z,100.00
2022-12-25T07:23:28.119Z,100.00
2022-12-25T07:25:59.824Z,100.00
2022-12-25T07:28:27.794Z,100.00
2022-12-25T07:30:55.187Z,100.00
2022-12-25T07:33:22.638Z,100.00
2022-12-25T07:35:49.967Z,100.00
2022-12-25T07:38:17.217Z,100.00
2022-12-25T07:40:47.277Z,100.00
2022-12-25T07:43:14.974Z,100.00
2022-12-25T07:45:42.359Z,100.00
2022-12-25T07:48:16.315Z,100.00
2022-12-25T07:50:44.582Z,100.00
2022-12-25T07:53:12.273Z,100.00
2022-12-25T07:55:39.548Z,100.00
2022-12-25T07:58:07.230Z,100.00
2022-12-25T08:00:34.763Z,100.00
2022-12-25T08:03:02.791Z,100.00
2022-12-25T08:05:32.369Z,100.00
2022-12-25T08:07:59.826Z,100.00
2022-12-25T08:10:27.172Z,100.00
2022-12-25T08:12:55.851Z,100.00
2022-12-25T08:15:23.329Z,100.00
2022-12-25T08:17:50.580Z,100.00
2022-12-25T08:20:17.948Z,100.00
2022-12-25T08:22:45.252Z,100.00
2022-12-25T08:25:12.638Z,100.00
2022-12-25T08:27:40.427Z,100.00
2022-12-25T08:30:08.138Z,100.00
2022-12-25T08:32:35.591Z,100.00
2022-12-25T08:35:03.046Z,100.00
2022-12-25T08:37:30.991Z,100.00
2022-12-25T08:39:58.389Z,100.00
2022-12-25T08:42:26.005Z,100.00
2022-12-25T08:44:53.744Z,100.00
2022-12-25T08:47:21.062Z,100.00
2022-12-25T08:49:48.772Z,100.00
2022-12-25T08:52:16.313Z,100.00
2022-12-25T08:54:43.718Z,100.00
2022-12-25T08:57:11.451Z,100.00
2022-12-25T08:59:38.779Z,100.00
2022-12-25T09:02:06.434Z,100.00
2022-12-25T09:04:34.318Z,100.00
2022-12-25T09:07:02.740Z,100.00
2022-12-25T09:09:30.630Z,100.00
2022-12-25T09:11:58.003Z,100.00
2022-12-25T09:14:25.757Z,100.00
2022-12-25T09:16:53.410Z,100.00
2022-12-25T09:19:22.138Z,100.00
2022-12-25T09:21:49.885Z,100.00
2022-12-25T09:24:17.176Z,100.00
2022-12-25T09:26:44.508Z,100.00
2022-12-25T09:29:12.491Z,100.00
2022-12-25T09:31:40.368Z,100.00
2022-12-25T09:34:13.864Z,100.00
2022-12-25T09:36:44.384Z,100.00
2022-12-25T09:39:12.333Z,100.00
2022-12-25T09:41:39.645Z,100.00
2022-12-25T09:44:19.628Z,100.00
2022-12-25T09:46:50.871Z,100.00
2022-12-25T09:49:27.147Z,100.00
2022-12-25T09:51:57.042Z,100.00
2022-12-25T09:54:39.127Z,100.00
2022-12-25T09:57:09.695Z,100.00
2022-12-25T09:59:37.705Z,100.00
2022-12-25T10:02:31.578Z,100.00
2022-12-25T10:04:59.433Z,99.02
2022-12-25T10:07:50.021Z,100.00
2022-12-25T10:10:27.270Z,99.33
2022-12-25T10:13:13.434Z,100.00
2022-12-25T10:16:00.137Z,99.46
2022-12-25T10:18:27.886Z,98.46
2022-12-25T10:20:56.975Z,97.72
2022-12-25T10:23:27.617Z,96.90
2022-12-25T10:25:55.595Z,98.02
2022-12-25T10:28:34.538Z,97.41
2022-12-25T10:31:05.987Z,95.65
2022-12-25T10:33:33.262Z,95.85
2022-12-25T10:36:00.664Z,95.98
2022-12-25T10:38:28.461Z,95.08
2022-12-25T10:41:13.541Z,95.25
2022-12-25T10:43:43.638Z,95.56
2022-12-25T10:46:12.466Z,95.52
2022-12-25T10:48:46.092Z,95.50
2022-12-25T10:51:13.577Z,94.95
2022-12-25T10:53:42.677Z,95.91
2022-12-25T10:56:18.384Z,92.51
2022-12-25T10:58:46.063Z,92.19
2022-12-25T11:01:14.628Z,91.97
2022-12-25T11:03:44.921Z,92.24
2022-12-25T11:06:21.931Z,90.94
2022-12-25T11:08:55.628Z,90.88
2022-12-25T11:11:24.163Z,91.08
2022-12-25T11:13:54.349Z,91.18
2022-12-25T11:16:50.863Z,90.62
2022-12-25T11:19:25.914Z,92.41
2022-12-25T11:21:55.633Z,92.99
2022-12-25T11:24:26.178Z,89.79
2022-12-25T11:26:55.080Z,88.20
2022-12-25T11:29:22.678Z,84.45
2022-12-25T11:31:50.804Z,83.97
2022-12-25T11:34:31.967Z,84.21
2022-12-25T11:37:01.275Z,84.45
2022-12-25T11:39:36.374Z,83.30
2022-12-25T11:42:22.225Z,82.07
2022-12-25T11:44:50.105Z,84.30
2022-12-25T11:47:21.031Z,85.18
2022-12-25T11:49:58.608Z,85.86
2022-12-25T11:52:29.744Z,90.10
2022-12-25T11:55:02.614Z,92.87
2022-12-25T11:57:31.710Z,92.50
2022-12-25T12:00:04.380Z,90.40
2022-12-25T12:02:43.211Z,89.70
2022-12-25T12:05:16.592Z,89.13
2022-12-25T12:08:11.646Z,88.29
2022-12-25T12:11:01.153Z,86.23
2022-12-25T12:13:28.838Z,86.11
2022-12-25T12:15:56.690Z,85.67
2022-12-25T12:18:28.355Z,85.21
2022-12-25T12:20:58.809Z,84.10
2022-12-25T12:23:27.622Z,84.83
2022-12-25T12:25:55.473Z,84.25
2022-12-25T12:28:25.467Z,84.58
2022-12-25T12:31:10.880Z,84.14
2022-12-25T12:33:41.791Z,86.44
2022-12-25T12:36:12.882Z,86.01
2022-12-25T12:38:43.648Z,84.74
2022-12-25T12:41:13.864Z,84.12
2022-12-25T12:43:43.661Z,86.60
2022-12-25T12:46:24.531Z,88.41
2022-12-25T12:49:20.330Z,90.26
2022-12-25T12:51:47.817Z,91.58
2022-12-25T12:54:23.667Z,92.56
2022-12-25T12:56:57.334Z,93.28
2022-12-25T12:59:25.239Z,94.22
2022-12-25T13:02:04.204Z,94.87
2022-12-25T13:04:48.331Z,96.30
2022-12-25T13:07:27.911Z,96.77
2022-12-25T13:10:13.867Z,96.48
2022-12-25T13:12:41.706Z,97.84
2022-12-25T13:15:13.285Z,100.00
2022-12-25T13:17:45.261Z,100.00
2022-12-25T13:20:18.755Z,100.00
2022-12-25T13:22:52.403Z,100.00
2022-12-25T13:25:21.846Z,100.00
2022-12-25T13:27:57.030Z,100.00
2022-12-25T13:30:25.087Z,100.00
2022-12-25T13:32:52.874Z,100.00
2022-12-25T13:35:21.303Z,100.00
2022-12-25T13:37:49.003Z,100.00
2022-12-25T13:40:22.167Z,100.00
2022-12-25T13:42:50.297Z,100.00
2022-12-25T13:45:25.971Z,100.00
2022-12-25T13:47:55.817Z,100.00
2022-12-25T13:50:25.525Z,100.00
2022-12-25T13:52:54.030Z,100.00
2022-12-25T13:55:23.190Z,100.00
2022-12-25T13:57:50.511Z,100.00
2022-12-25T14:00:24.435Z,100.00
2022-12-25T14:02:52.117Z,100.00
2022-12-25T14:05:46.130Z,100.00
2022-12-25T14:08:19.792Z,100.00
2022-12-25T14:10:49.259Z,100.00
2022-12-25T14:13:18.125Z,100.00
2022-12-25T14:15:47.965Z,100.00
2022-12-25T14:18:19.447Z,100.00
2022-12-25T14:21:13.176Z,100.00
2022-12-25T14:23:47.926Z,100.00
2022-12-25T14:26:33.740Z,100.00
2022-12-25T14:29:01.229Z,100.00
2022-12-25T14:31:29.540Z,100.00
2022-12-25T14:33:58.220Z,100.00
2022-12-25T14:36:26.654Z,100.00
2022-12-25T14:39:01.975Z,100.00
2022-12-25T14:41:41.785Z,100.00
2022-12-25T14:44:28.207Z,100.00
2022-12-25T14:47:11.147Z,100.00
2022-12-25T14:49:38.483Z,100.00
2022-12-25T14:52:11.970Z,100.00
2022-12-25T14:54:40.230Z,100.00
2022-12-25T14:57:16.695Z,100.00
2022-12-25T14:59:44.786Z,100.00
2022-12-25T15:02:17.779Z,100.00
2022-12-25T15:04:45.194Z,100.00
2022-12-25T15:07:25.640Z,100.00
2022-12-25T15:10:10.553Z,100.00
2022-12-25T15:12:40.255Z,100.00
2022-12-25T15:15:07.857Z,100.00
2022-12-25T15:17:35.659Z,100.00
2022-12-25T15:20:04.128Z,100.00
2022-12-25T15:23:02.207Z,100.00
2022-12-25T15:25:27.636Z,100.00
2022-12-25T15:27:55.240Z,100.00
2022-12-25T15:30:22.685Z,100.00
2022-12-25T15:32:50.645Z,100.00
2022-12-25T15:35:21.897Z,100.00
2022-12-25T15:37:49.749Z,100.00
2022-12-25T15:40:17.664Z,100.00
2022-12-25T15:42:47.585Z,100.00
2022-12-25T15:45:18.441Z,100.00
2022-12-25T15:47:46.310Z,100.00
2022-12-25T15:50:13.911Z,100.00
2022-12-25T15:52:41.357Z,100.00
2022-12-25T15:55:09.070Z,100.00
2022-12-25T15:57:37.409Z,100.00
2022-12-25T16:00:05.526Z,100.00
2022-12-25T16:02:41.650Z,100.00
2022-12-25T16:05:10.774Z,100.00
2022-12-25T16:07:38.247Z,100.00
2022-12-25T16:10:06.659Z,100.00
2022-12-25T16:12:34.580Z,100.00
2022-12-25T16:15:01.856Z,100.00
2022-12-25T16:17:29.257Z,100.00
2022-12-25T16:19:56.675Z,100.00
2022-12-25T16:22:27.428Z,100.00
2022-12-25T16:24:55.509Z,100.00
2022-12-25T16:27:22.996Z,100.00
2022-12-25T16:29:50.746Z,100.00
2022-12-25T16:32:18.038Z,100.00
2022-12-25T16:34:45.550Z,100.00
2022-12-25T16:37:12.871Z,100.00
2022-12-25T16:39:40.219Z,100.00
2022-12-25T16:42:07.614Z,100.00
2022-12-25T16:44:36.488Z,100.00
2022-12-25T16:47:03.962Z,100.00
2022-12-25T16:49:31.747Z,100.00
2022-12-25T16:51:59.716Z,100.00
2022-12-25T16:54:27.511Z,100.00
2022-12-25T16:56:55.009Z,100.00
2022-12-25T16:59:22.484Z,100.00
2022-12-25T17:01:49.931Z,100.00
2022-12-25T17:04:17.687Z,100.00
2022-12-25T17:06:45.481Z,100.00
2022-12-25T17:09:12.798Z,100.00
2022-12-25T17:11:40.653Z,100.00
2022-12-25T17:14:08.238Z,100.00
2022-12-25T17:16:36.840Z,100.00
2022-12-25T17:19:07.977Z,100.00
2022-12-25T17:21:36.943Z,100.00
2022-12-25T17:24:04.901Z,100.00
2022-12-25T17:26:32.857Z,100.00
2022-12-25T17:29:00.691Z,100.00
2022-12-25T17:31:28.217Z,100.00
2022-12-25T17:33:56.024Z,100.00
2022-12-25T17:36:23.861Z,100.00
2022-12-25T17:38:51.290Z,100.00
2022-12-25T17:41:19.552Z,100.00
2022-12-25T17:43:47.347Z,100.00
2022-12-25T17:46:16.850Z,100.00
2022-12-25T17:48:44.635Z,100.00
2022-12-25T17:51:13.892Z,100.00
2022-12-25T17:53:42.568Z,100.00
2022-12-25T17:56:10.593Z,100.00
2022-12-25T17:58:38.874Z,100.00
2022-12-25T18:01:10.427Z,100.00
2022-12-25T18:03:38.080Z,100.00
2022-12-25T18:06:06.329Z,100.00
2022-12-25T18:08:39.331Z,100.00
2022-12-25T18:11:09.508Z,100.00
2022-12-25T18:13:38.266Z,100.00
2022-12-25T18:16:07.254Z,100.00
2022-12-25T18:18:34.905Z,100.00
2022-12-25T18:21:02.408Z,100.00
2022-12-25T18:23:29.950Z,100.00
2022-12-25T18:26:00.550Z,100.00
2022-12-25T18:28:28.347Z,100.00
2022-12-25T18:30:55.956Z,100.00
2022-12-25T18:33:23.345Z,100.00
2022-12-25T18:35:56.043Z,100.00
2022-12-25T18:38:23.408Z,100.00
2022-12-25T18:40:51.493Z,100.00
2022-12-25T18:43:18.937Z,100.00
2022-12-25T18:45:55.107Z,100.00
2022-12-25T18:48:22.535Z,100.00
2022-12-25T18:50:54.592Z,100.00
2022-12-25T18:53:21.957Z,100.00
2022-12-25T18:55:49.916Z,100.00
2022-12-25T18:58:18.761Z,100.00
2022-12-25T19:00:46.562Z,100.00
2022-12-25T19:03:13.926Z,100.00
2022-12-25T19:05:41.360Z,100.00
2022-12-25T19:08:09.125Z,100.00
2022-12-25T19:10:39.491Z,100.00
2022-12-25T19:13:07.740Z,100.00
2022-12-25T19:15:35.823Z,100.00
2022-12-25T19:18:03.203Z,100.00
2022-12-25T19:20:30.626Z,100.00
2022-12-25T19:22:58.061Z,100.00
2022-12-25T19:25:25.878Z,100.00
2022-12-25T19:27:53.643Z,100.00
2022-12-25T19:30:21.521Z,100.00
2022-12-25T19:32:48.916Z,100.00
2022-12-25T19:35:17.621Z,100.00
2022-12-25T19:37:44.954Z,100.00
2022-12-25T19:40:12.307Z,100.00
2022-12-25T19:42:39.780Z,100.00
2022-12-25T19:45:08.377Z,100.00
2022-12-25T19:47:35.965Z,100.00
2022-12-25T19:50:03.924Z,100.00
2022-12-25T19:52:31.386Z,100.00
2022-12-25T19:54:58.728Z,100.00
2022-12-25T19:57:26.601Z,100.00
2022-12-25T19:59:53.932Z,100.00
2022-12-25T20:02:21.389Z,100.00
2022-12-25T20:04:49.355Z,100.00
2022-12-25T20:07:17.021Z,100.00
2022-12-25T20:09:47.748Z,100.00
2022-12-25T20:12:16.366Z,100.00
2022-12-25T20:14:44.054Z,100.00
2022-12-25T20:17:15.680Z,100.00
2022-12-25T20:19:43.498Z,100.00
2022-12-25T20:22:10.935Z,100.00
2022-12-25T20:24:38.398Z,100.00
2022-12-25T20:27:05.789Z,100.00
2022-12-25T20:29:33.087Z,100.00
2022-12-25T20:32:00.455Z,100.00
2022-12-25T20:34:27.866Z,100.00
2022-12-25T20:36:56.717Z,100.00
2022-12-25T20:39:24.451Z,100.00
2022-12-25T20:41:52.751Z,100.00
2022-12-25T20:44:20.344Z,100.00
2022-12-25T20:46:47.738Z,100.00
2022-12-25T20:49:15.565Z,100.00
2022-12-25T20:51:42.925Z,100.00
2022-12-25T20:54:10.338Z,100.00
2022-12-25T20:56:38.564Z,100.00
2022-12-25T20:59:06.304Z,100.00
2022-12-25T21:01:34.613Z,100.00
2022-12-25T21:04:02.215Z,100.00
2022-12-25T21:06:29.806Z,100.00
2022-12-25T21:08:57.099Z,100.00
2022-12-25T21:11:24.469Z,100.00
2022-12-25T21:13:51.990Z,100.00
2022-12-25T21:16:20.838Z,100.00
2022-12-25T21:18:49.801Z,100.00
2022-12-25T21:21:17.607Z,100.00
2022-12-25T21:23:45.728Z,100.00
2022-12-25T21:26:15.681Z,100.00
2022-12-25T21:28:43.075Z,100.00
2022-12-25T21:31:11.124Z,100.00
2022-12-25T21:33:55.221Z,100.00
2022-12-25T21:36:27.336Z,100.00
2022-12-25T21:39:05.244Z,100.00
2022-12-25T21:41:39.521Z,100.00
2022-12-25T21:44:06.971Z,100.00
2022-12-25T21:46:34.807Z,100.00
2022-12-25T21:49:02.604Z,100.00
2022-12-25T21:51:50.281Z,100.00
2022-12-25T21:54:18.471Z,100.00
2022-12-25T21:56:47.290Z,100.00
2022-12-25T21:59:17.144Z,100.00
2022-12-25T22:01:45.418Z,100.00
2022-12-25T22:04:13.903Z,100.00
2022-12-25T22:07:00.957Z,100.00
2022-12-25T22:09:28.435Z,100.00
2022-12-25T22:12:14.459Z,100.00
2022-12-25T22:14:56.594Z,100.00
2022-12-25T22:17:44.642Z,100.00
2022-12-25T22:20:14.010Z,100.00
2022-12-25T22:22:41.758Z,100.00
2022-12-25T22:25:11.026Z,100.00
2022-12-25T22:27:39.651Z,100.00
2022-12-25T22:30:09.250Z,100.00
2022-12-25T22:32:37.186Z,100.00
2022-12-25T22:35:05.224Z,100.00
2022-12-25T22:37:32.676Z,100.00
2022-12-25T22:40:02.251Z,100.00
2022-12-25T22:42:29.711Z,100.00
2022-12-25T22:44:57.610Z,100.00
2022-12-25T22:47:24.976Z,100.00
2022-12-25T22:49:52.304Z,100.00
2022-12-25T22:52:19.846Z,100.00
2022-12-25T22:54:47.697Z,100.00
2022-12-25T22:57:14.993Z,100.00
2022-12-25T22:59:42.461Z,100.00
2022-12-25T23:02:10.413Z,100.00
2022-12-25T23:04:38.367Z,100.00
2022-12-25T23:07:05.689Z,100.00
2022-12-25T23:09:33.029Z,100.00
2022-12-25T23:12:00.422Z,100.00
2022-12-25T23:14:40.660Z,100.00
2022-12-25T23:17:31.258Z,100.00
2022-12-25T23:20:18.508Z,100.00
2022-12-25T23:23:04.955Z,100.00
2022-12-25T23:25:53.291Z,100.00
2022-12-25T23:28:40.121Z,100.00
2022-12-25T23:31:09.409Z,100.00
2022-12-25T23:33:36.827Z,100.00
2022-12-25T23:36:04.363Z,100.00
2022-12-25T23:38:31.878Z,100.00
2022-12-25T23:40:59.236Z,100.00
2022-12-25T23:43:27.143Z,100.00
2022-12-25T23:45:55.214Z,100.00
2022-12-25T23:48:22.735Z,100.00
2022-12-25T23:50:50.134Z,100.00
2022-12-25T23:53:17.963Z,100.00
2022-12-25T23:55:50.029Z,100.00
2022-12-25T23:58:21.636Z,100.00
